Ettrick, Wisconsin
Current Conditions -  °F | °C
As of 7:53 AM on Monday 26 Jan 2015 (Local Time) from KLSE Reporting Station
Light Snow Light Snow  
Wind Chill: -12°   Ceiling: 3000
Heat Index: -5°   Visibility: 3mi
Dew Point: -7°   Wind: 14mph
Humidity: 85%   Direction: 170°S
Pressure: 29.82"   Gusts: NA
Location:  44.17°N, 91.27°W
Report Text: KLSE 261353Z 17012KT 3SM -SN BR SCT008 BKN030 OVC080 M05/M07 A2982 RMK AO2 SLP115 P0002 T10501072
Loading
Personal Weather Stations






























Interactive Weather Map New forecast layout! Learn more

10-Day Weather Forecast

Advertisements
Track Severe Weather on mobile